Ana Sayfa
METAR-TAF:

METAR-TAF

Havaalanları :

El Paso, Teksas, Amerika Birleşik Devletleri

Enlem: 31-48-40N, Boylam: 106-22-33W, yükseklik: 1206 m

Güncel hava durumu gözlemi

Rapor saat 14:51 UTC de 26 dakika önce yapıldı.
Rüzgar güneydan 6 kt
Sıcaklık 26°C
Nem 12%
Basınç 1015 hPa
Görüş mesafesi: 16.1 km
Açık gökyüzü

METAR: KELP 221451Z 19006KT 10SM CLR 26/M06 A2997 RMK AO2 SLP070 60000 T02561056 51012

Saat: 10:17 (15:17 UTC)

Tahmin

Rapor saat 11:20 UTC de 3 saat ve 57 dakika önce yapıldı.
Ayın 22'si saat 12 UTC'den ayın 23'si saat 12 UTC'ye kadar geçerli Tahmin
Rüzgar güneybatıdan 6 kt
Görüş mesafesi: 10 km
Açık gökyüzü
Ayın 22'si saat 1800 UTC'den
Rüzgar batı/güneybatıdan 14 kt ve 22 kt'a kadar ani rüzgarlar
Görüş mesafesi: 10 km
Açık gökyüzü

TAF: KELP 221120Z 2212/2312 22006KT P6SM SKC FM221800 25014G22KT P6SM SKC

4.000'den fazla havaalanı için hava durumu gözlemleri ve tahminleri (METAR ve TAF raporları).

Kullanılabilir istasyonlar harita üzerinde sarı ve kırmızı noktalarla gösterilir.

İstasyonun adını görmek için fareyi noktanın üzerinde gezdirin.

Sonrasında hava gözlem ve tahminlerini görmek için tıklayın.

Haritayı değiştirmek için: yaklaştırmak için siyah artı işaretli yeşil düğmeye ve uzaklaştırmak için de eksi işaretli düğmeye hızla tıklayın; bitişik haritalar için yeşil okları kullanın.


METAR-TAF: